createdAt,value
2018-10-18T00:00:00.637Z,17.00
2018-10-18T00:02:32.966Z,17.20
2018-10-18T00:05:06.956Z,15.83
2018-10-18T00:07:39.377Z,13.87
2018-10-18T00:10:11.710Z,16.30
2018-10-18T00:12:43.991Z,17.53
2018-10-18T00:15:16.270Z,17.63
2018-10-18T00:17:48.552Z,17.30
2018-10-18T00:20:20.792Z,17.10
2018-10-18T00:22:53.067Z,14.50
2018-10-18T00:25:25.283Z,16.40
2018-10-18T00:27:57.580Z,18.63
2018-10-18T00:30:29.830Z,16.83
2018-10-18T00:33:02.126Z,14.17
2018-10-18T00:35:34.493Z,16.07
2018-10-18T00:38:07.505Z,16.97
2018-10-18T00:40:39.705Z,15.43
2018-10-18T00:43:12.222Z,15.93
2018-10-18T00:45:44.553Z,17.90
2018-10-18T00:48:16.991Z,15.67
2018-10-18T00:50:49.160Z,15.93
2018-10-18T00:53:21.505Z,18.67
2018-10-18T00:55:53.786Z,16.03
2018-10-18T00:58:26.049Z,18.70
2018-10-18T01:00:58.397Z,18.17
2018-10-18T01:03:30.848Z,17.40
2018-10-18T01:06:03.404Z,18.13
2018-10-18T01:08:35.901Z,17.37
2018-10-18T01:11:08.184Z,16.93
2018-10-18T01:13:40.473Z,16.53
2018-10-18T01:16:12.748Z,14.83
2018-10-18T01:18:45.069Z,15.87
2018-10-18T01:21:17.593Z,16.00
2018-10-18T01:23:49.861Z,16.70
2018-10-18T01:26:22.202Z,16.30
2018-10-18T01:28:54.518Z,17.50
2018-10-18T01:31:26.816Z,15.57
2018-10-18T01:33:59.095Z,16.23
2018-10-18T01:36:31.390Z,15.87
2018-10-18T01:39:04.305Z,17.43
2018-10-18T01:41:36.860Z,17.97
2018-10-18T01:44:09.409Z,16.53
2018-10-18T01:46:41.638Z,16.53
2018-10-18T01:49:13.893Z,15.63
2018-10-18T01:51:46.168Z,16.13
2018-10-18T01:54:18.488Z,17.43
2018-10-18T01:56:50.929Z,14.93
2018-10-18T01:59:23.181Z,16.90
2018-10-18T02:01:55.464Z,19.10
2018-10-18T02:04:27.785Z,16.53
2018-10-18T02:07:00.046Z,18.20
2018-10-18T02:09:32.294Z,17.13
2018-10-18T02:12:05.295Z,17.27
2018-10-18T02:14:37.797Z,15.30
2018-10-18T02:17:10.189Z,20.33
2018-10-18T02:19:42.551Z,18.50
2018-10-18T02:22:14.823Z,16.47
2018-10-18T02:24:47.096Z,16.90
2018-10-18T02:27:19.477Z,17.73
2018-10-18T02:29:51.725Z,17.47
2018-10-18T02:32:24.024Z,17.30
2018-10-18T02:34:56.338Z,17.27
2018-10-18T02:37:28.685Z,18.70
2018-10-18T02:40:01.166Z,19.90
2018-10-18T02:42:33.601Z,16.10
2018-10-18T02:45:05.981Z,17.90
2018-10-18T02:47:38.257Z,16.63
2018-10-18T02:50:10.554Z,17.17
2018-10-18T02:52:42.833Z,17.33
2018-10-18T02:55:15.129Z,18.40
2018-10-18T02:57:47.441Z,18.20
2018-10-18T03:00:19.737Z,15.70
2018-10-18T03:02:52.069Z,19.67
2018-10-18T03:05:24.379Z,14.03
2018-10-18T03:07:56.686Z,18.33
2018-10-18T03:10:29.136Z,18.17
2018-10-18T03:13:01.586Z,18.50
2018-10-18T03:15:33.933Z,18.67
2018-10-18T03:18:06.553Z,19.27
2018-10-18T03:20:38.843Z,16.20
2018-10-18T03:23:11.201Z,17.33
2018-10-18T03:25:43.501Z,18.73
2018-10-18T03:28:15.748Z,19.57
2018-10-18T03:30:47.999Z,18.77
2018-10-18T03:33:20.239Z,16.90
2018-10-18T03:35:52.499Z,16.30
2018-10-18T03:38:24.883Z,18.03
2018-10-18T03:40:57.250Z,17.83
2018-10-18T03:43:29.525Z,20.10
2018-10-18T03:46:01.818Z,16.10
2018-10-18T03:48:34.186Z,20.33
2018-10-18T03:51:06.629Z,17.03
2018-10-18T03:53:38.874Z,22.57
2018-10-18T03:56:11.301Z,21.17
2018-10-18T03:58:43.613Z,20.33
2018-10-18T04:01:15.872Z,21.77
2018-10-18T04:03:48.133Z,18.97
2018-10-18T04:06:20.513Z,22.50
2018-10-18T04:08:52.791Z,19.37
2018-10-18T04:11:25.068Z,19.90
2018-10-18T04:13:57.402Z,20.73
2018-10-18T04:16:29.713Z,19.97
2018-10-18T04:19:02.079Z,19.70
2018-10-18T04:21:34.392Z,19.90
2018-10-18T04:24:06.756Z,19.67
2018-10-18T04:26:38.915Z,22.70
2018-10-18T04:29:11.540Z,20.13
2018-10-18T04:31:43.804Z,19.70
2018-10-18T04:34:16.165Z,21.53
2018-10-18T04:36:48.510Z,21.13
2018-10-18T04:39:20.781Z,18.97
2018-10-18T04:41:53.240Z,20.13
2018-10-18T04:44:25.686Z,22.10
2018-10-18T04:46:57.923Z,19.90
2018-10-18T04:49:30.263Z,20.17
2018-10-18T04:52:02.589Z,18.87
2018-10-18T04:54:34.890Z,21.03
2018-10-18T04:57:07.480Z,20.13
2018-10-18T04:59:39.744Z,17.50
2018-10-18T05:02:12.018Z,17.17
2018-10-18T05:04:55.713Z,17.93
2018-10-18T05:07:27.907Z,19.73
2018-10-18T05:10:00.199Z,19.43
2018-10-18T05:12:32.487Z,19.90
2018-10-18T05:15:06.377Z,18.33
2018-10-18T05:17:45.363Z,20.17
2018-10-18T05:20:17.874Z,20.80
2018-10-18T05:22:50.122Z,18.27
2018-10-18T05:25:22.503Z,17.73
2018-10-18T05:27:54.815Z,20.67
2018-10-18T05:30:27.153Z,19.47
2018-10-18T05:32:59.461Z,20.80
2018-10-18T05:35:31.699Z,21.63
2018-10-18T05:38:04.509Z,19.47
2018-10-18T05:40:36.761Z,21.43
2018-10-18T05:43:09.090Z,22.47
2018-10-18T05:45:41.393Z,21.97
2018-10-18T05:48:13.832Z,20.73
2018-10-18T05:50:46.193Z,19.87
2018-10-18T05:53:18.717Z,21.37
2018-10-18T05:55:50.932Z,20.93
2018-10-18T05:58:23.261Z,20.47
2018-10-18T06:00:55.643Z,21.60
2018-10-18T06:03:27.933Z,22.00
2018-10-18T06:06:00.309Z,17.07
2018-10-18T06:08:32.598Z,21.60
2018-10-18T06:11:30.065Z,20.53
2018-10-18T06:14:02.498Z,22.73
2018-10-18T06:16:34.882Z,22.03
2018-10-18T06:19:07.232Z,20.17
2018-10-18T06:21:39.506Z,20.93
2018-10-18T06:24:11.826Z,21.03
2018-10-18T06:26:44.106Z,21.00
2018-10-18T06:29:16.597Z,23.70
2018-10-18T06:31:48.990Z,23.60
2018-10-18T06:34:21.238Z,24.97
2018-10-18T06:36:53.548Z,21.37
2018-10-18T06:39:25.820Z,22.23
2018-10-18T06:41:58.902Z,22.17
2018-10-18T06:44:31.198Z,23.70
2018-10-18T06:47:03.814Z,25.50
2018-10-18T06:49:36.196Z,23.83
2018-10-18T06:52:08.457Z,21.90
2018-10-18T06:54:40.760Z,26.07
2018-10-18T06:57:13.195Z,21.37
2018-10-18T06:59:45.528Z,23.77
2018-10-18T07:02:17.790Z,23.47
2018-10-18T07:04:50.043Z,23.07
2018-10-18T07:07:22.378Z,22.23
2018-10-18T07:09:54.626Z,24.63
2018-10-18T07:12:26.957Z,24.77
2018-10-18T07:14:59.217Z,24.27
2018-10-18T07:17:31.610Z,22.43
2018-10-18T07:20:04.261Z,24.40
2018-10-18T07:22:37.573Z,21.53
2018-10-18T07:25:11.328Z,25.17
2018-10-18T07:27:43.761Z,23.77
2018-10-18T07:30:16.282Z,21.27
2018-10-18T07:32:48.480Z,20.87
2018-10-18T07:35:20.757Z,25.97
2018-10-18T07:37:53.094Z,21.13
2018-10-18T07:40:25.456Z,26.53
2018-10-18T07:42:57.774Z,26.17
2018-10-18T07:45:30.069Z,26.80
2018-10-18T07:48:02.474Z,24.87
2018-10-18T07:50:34.714Z,26.43
2018-10-18T07:53:07.097Z,28.53
2018-10-18T07:55:39.371Z,23.90
2018-10-18T07:58:11.703Z,30.47
2018-10-18T08:00:44.123Z,28.10
2018-10-18T08:03:16.361Z,28.03
2018-10-18T08:05:48.718Z,26.20
2018-10-18T08:08:21.021Z,29.73
2018-10-18T08:10:53.330Z,30.27
2018-10-18T08:13:25.641Z,30.40
2018-10-18T08:15:58.017Z,32.03
2018-10-18T08:18:30.384Z,25.60
2018-10-18T08:21:02.788Z,30.33
2018-10-18T08:23:35.078Z,30.37
2018-10-18T08:26:07.488Z,25.90
2018-10-18T08:28:39.803Z,28.40
2018-10-18T08:31:12.239Z,29.47
2018-10-18T08:33:44.414Z,29.43
2018-10-18T08:36:16.805Z,33.23
2018-10-18T08:38:49.103Z,27.97
2018-10-18T08:41:21.401Z,31.50
2018-10-18T08:43:53.736Z,34.47
2018-10-18T08:46:26.329Z,33.80
2018-10-18T08:48:58.638Z,31.60
2018-10-18T08:51:31.345Z,30.33
2018-10-18T08:54:03.632Z,26.90
2018-10-18T08:56:35.948Z,31.02
2018-10-18T08:59:08.292Z,30.80
2018-10-18T09:01:40.598Z,29.42
2018-10-18T09:04:12.922Z,33.63
2018-10-18T09:06:45.200Z,35.38
2018-10-18T09:09:17.766Z,33.50
2018-10-18T09:11:49.878Z,31.95
2018-10-18T09:14:22.179Z,38.28
2018-10-18T09:16:54.490Z,35.83
2018-10-18T09:19:26.737Z,35.08
2018-10-18T09:21:59.029Z,35.43
2018-10-18T09:24:31.309Z,32.73
2018-10-18T09:27:03.636Z,32.40
2018-10-18T09:29:35.949Z,31.95
2018-10-18T09:32:08.557Z,36.60
2018-10-18T09:34:40.839Z,33.02
2018-10-18T09:37:13.222Z,32.25
2018-10-18T09:39:45.442Z,32.98
2018-10-18T09:42:17.714Z,35.35
2018-10-18T09:44:50.170Z,37.78
2018-10-18T09:47:22.430Z,36.00
2018-10-18T09:49:54.733Z,35.73
2018-10-18T09:52:27.049Z,33.48
2018-10-18T09:54:59.360Z,35.23
2018-10-18T09:57:31.618Z,32.65
2018-10-18T10:00:04.265Z,34.35
2018-10-18T10:02:42.069Z,31.90
2018-10-18T10:05:14.369Z,32.20
2018-10-18T10:07:46.630Z,36.33
2018-10-18T10:10:19.022Z,28.85
2018-10-18T10:12:51.308Z,30.40
2018-10-18T10:15:23.805Z,35.17
2018-10-18T10:17:56.114Z,28.55
2018-10-18T10:20:28.433Z,31.57
2018-10-18T10:23:00.797Z,33.23
2018-10-18T10:25:33.085Z,30.43
2018-10-18T10:28:05.417Z,30.08
2018-10-18T10:30:37.748Z,34.85
2018-10-18T10:33:10.101Z,31.40
2018-10-18T10:35:42.450Z,32.58
2018-10-18T10:38:14.797Z,31.15
2018-10-18T10:40:47.121Z,30.45
2018-10-18T10:43:19.485Z,27.17
2018-10-18T10:45:51.939Z,26.70
2018-10-18T10:48:24.113Z,24.02
2018-10-18T10:50:56.433Z,29.30
2018-10-18T10:53:28.675Z,30.90
2018-10-18T10:56:01.049Z,30.30
2018-10-18T10:58:33.537Z,25.65
2018-10-18T11:01:25.147Z,27.70
2018-10-18T11:03:58.907Z,29.75
2018-10-18T11:06:31.180Z,27.30
2018-10-18T11:09:04.772Z,25.35
2018-10-18T11:11:37.189Z,27.05
2018-10-18T11:14:09.503Z,21.90
2018-10-18T11:16:41.782Z,20.27
2018-10-18T11:19:14.078Z,14.23
2018-10-18T11:21:46.397Z,17.52
2018-10-18T11:24:18.864Z,21.30
2018-10-18T11:26:51.316Z,19.73
2018-10-18T11:29:23.776Z,18.37
2018-10-18T11:31:56.087Z,20.23
2018-10-18T11:34:28.406Z,19.77
2018-10-18T11:37:00.782Z,20.80
2018-10-18T11:39:33.105Z,18.07
2018-10-18T11:42:05.735Z,15.63
2018-10-18T11:44:40.014Z,19.55
2018-10-18T11:47:12.313Z,14.90
2018-10-18T11:49:44.605Z,18.90
2018-10-18T11:52:16.940Z,17.73
2018-10-18T11:54:49.251Z,17.30
2018-10-18T11:57:21.519Z,19.98
2018-10-18T11:59:53.883Z,18.30
2018-10-18T12:02:26.222Z,16.50
2018-10-18T12:04:58.515Z,15.00
2018-10-18T12:07:30.903Z,17.70
2018-10-18T12:10:03.257Z,18.05
2018-10-18T12:12:35.743Z,16.00
2018-10-18T12:15:10.391Z,19.00
2018-10-18T12:17:42.820Z,18.15
2018-10-18T12:20:16.482Z,16.82
2018-10-18T12:22:48.718Z,18.25
2018-10-18T12:25:20.980Z,17.52
2018-10-18T12:27:53.335Z,15.20
2018-10-18T12:30:25.625Z,17.20
2018-10-18T12:32:57.962Z,16.05
2018-10-18T12:35:30.457Z,14.93
2018-10-18T12:38:02.757Z,20.45
2018-10-18T12:40:35.291Z,18.57
2018-10-18T12:43:07.445Z,16.50
2018-10-18T12:45:39.729Z,17.40
2018-10-18T12:48:12.085Z,14.40
2018-10-18T12:50:44.490Z,12.85
2018-10-18T12:53:16.742Z,14.70
2018-10-18T12:55:49.072Z,14.50
2018-10-18T12:58:21.414Z,14.98
2018-10-18T13:00:53.698Z,16.62
2018-10-18T13:03:26.136Z,15.32
2018-10-18T13:05:58.402Z,15.15
2018-10-18T13:08:30.670Z,16.42
2018-10-18T13:11:03.237Z,16.85
2018-10-18T13:13:36.525Z,13.40
2018-10-18T13:16:08.787Z,14.25
2018-10-18T13:18:41.194Z,13.35
2018-10-18T13:21:13.831Z,13.45
2018-10-18T13:23:46.191Z,14.20
2018-10-18T13:26:18.629Z,12.95
2018-10-18T13:28:50.923Z,13.43
2018-10-18T13:31:23.549Z,13.50
2018-10-18T13:33:55.990Z,13.70
2018-10-18T13:36:29.474Z,15.78
2018-10-18T13:39:01.943Z,13.50
2018-10-18T13:41:34.254Z,15.03
2018-10-18T13:44:07.133Z,15.50
2018-10-18T13:46:39.886Z,16.23
2018-10-18T13:49:12.210Z,16.25
2018-10-18T13:51:44.658Z,13.75
2018-10-18T13:54:17.076Z,14.75
2018-10-18T13:56:49.391Z,14.65
2018-10-18T13:59:33.144Z,12.35
2018-10-18T14:02:05.394Z,14.98
2018-10-18T14:04:37.866Z,12.05
2018-10-18T14:07:10.258Z,14.25
2018-10-18T14:09:42.542Z,12.05
2018-10-18T14:12:14.965Z,14.38
2018-10-18T14:14:47.289Z,13.75
2018-10-18T14:17:19.739Z,12.33
2018-10-18T14:19:52.013Z,16.93
2018-10-18T14:22:24.335Z,13.30
2018-10-18T14:24:56.721Z,15.70
2018-10-18T14:27:29.556Z,10.60
2018-10-18T14:30:02.037Z,17.50
2018-10-18T14:32:34.326Z,14.50
2018-10-18T14:35:08.281Z,12.68
2018-10-18T14:37:40.712Z,13.13
2018-10-18T14:40:13.041Z,15.80
2018-10-18T14:42:45.418Z,14.60
2018-10-18T14:45:17.804Z,14.05
2018-10-18T14:47:50.247Z,12.82
2018-10-18T14:50:23.024Z,13.85
2018-10-18T14:52:55.280Z,14.18
2018-10-18T14:55:27.623Z,13.80
2018-10-18T14:58:00.011Z,15.13
2018-10-18T15:00:32.306Z,14.15
2018-10-18T15:03:04.953Z,13.68
2018-10-18T15:05:37.353Z,10.70
2018-10-18T15:08:09.669Z,12.88
2018-10-18T15:10:42.017Z,12.68
2018-10-18T15:13:14.517Z,11.25
2018-10-18T15:15:46.842Z,8.63
2018-10-18T15:18:19.138Z,12.95
2018-10-18T15:20:51.445Z,16.55
2018-10-18T15:23:23.890Z,14.75
2018-10-18T15:25:56.403Z,15.60
2018-10-18T15:28:28.707Z,15.55
2018-10-18T15:31:01.063Z,15.38
2018-10-18T15:33:33.400Z,15.30
2018-10-18T15:36:05.764Z,13.38
2018-10-18T15:38:38.304Z,15.68
2018-10-18T15:41:10.842Z,13.98
2018-10-18T15:43:43.216Z,15.05
2018-10-18T15:46:15.615Z,12.82
2018-10-18T15:48:47.955Z,11.63
2018-10-18T15:51:20.373Z,12.60
2018-10-18T15:53:52.721Z,13.22
2018-10-18T15:56:25.199Z,11.63
2018-10-18T15:58:57.644Z,12.18
2018-10-18T16:01:29.996Z,10.32
2018-10-18T16:04:02.494Z,13.32
2018-10-18T16:06:34.989Z,12.50
2018-10-18T16:09:09.261Z,12.75
2018-10-18T16:11:42.004Z,13.85
2018-10-18T16:14:14.733Z,14.15
2018-10-18T16:16:47.129Z,14.78
2018-10-18T16:19:19.545Z,16.45
2018-10-18T16:21:52.066Z,16.37
2018-10-18T16:24:24.575Z,12.37
2018-10-18T16:26:56.797Z,15.53
2018-10-18T16:29:29.111Z,13.38
2018-10-18T16:32:01.711Z,13.98
2018-10-18T16:34:34.103Z,13.35
2018-10-18T16:37:06.528Z,15.00
2018-10-18T16:39:39.071Z,15.90
2018-10-18T16:42:11.679Z,13.15
2018-10-18T16:44:44.173Z,12.70
2018-10-18T16:47:16.498Z,14.40
2018-10-18T16:49:48.935Z,13.28
2018-10-18T16:52:21.283Z,13.48
2018-10-18T16:54:53.638Z,12.13
2018-10-18T16:57:26.009Z,14.38
2018-10-18T16:59:58.359Z,12.68
2018-10-18T17:02:30.740Z,16.48
2018-10-18T17:05:03.168Z,13.48
2018-10-18T17:07:35.832Z,17.57
2018-10-18T17:10:08.242Z,12.98
2018-10-18T17:12:40.493Z,16.95
2018-10-18T17:15:12.987Z,13.88
2018-10-18T17:17:45.565Z,19.95
2018-10-18T17:20:18.145Z,17.75
2018-10-18T17:22:50.401Z,19.10
2018-10-18T17:25:22.776Z,15.50
2018-10-18T17:27:55.133Z,18.00
2018-10-18T17:30:27.551Z,16.23
2018-10-18T17:32:59.881Z,20.95
2018-10-18T17:35:32.217Z,21.12
2018-10-18T17:38:06.272Z,20.80
2018-10-18T17:40:38.593Z,16.93
2018-10-18T17:43:11.074Z,19.55
2018-10-18T17:45:43.412Z,22.62
2018-10-18T17:48:15.875Z,19.82
2018-10-18T17:50:48.374Z,18.00
2018-10-18T17:53:20.786Z,24.20
2018-10-18T17:55:53.119Z,19.30
2018-10-18T17:58:25.562Z,18.75
2018-10-18T18:00:58.049Z,22.65
2018-10-18T18:03:30.763Z,19.17
2018-10-18T18:06:03.303Z,21.15
2018-10-18T18:08:35.679Z,17.50
2018-10-18T18:11:08.081Z,19.32
2018-10-18T18:13:40.507Z,16.85
2018-10-18T18:16:12.943Z,17.07
2018-10-18T18:18:45.596Z,20.32
2018-10-18T18:21:17.996Z,19.02
2018-10-18T18:23:50.355Z,21.50
2018-10-18T18:26:32.447Z,20.43
2018-10-18T18:28:55.268Z,22.02
2018-10-18T18:31:27.691Z,19.52
2018-10-18T18:34:00.141Z,16.77
2018-10-18T18:36:32.670Z,18.05
2018-10-18T18:39:07.109Z,19.27
2018-10-18T18:41:40.697Z,19.42
2018-10-18T18:44:13.147Z,18.55
2018-10-18T18:46:45.607Z,18.52
2018-10-18T18:49:18.049Z,21.87
2018-10-18T18:51:50.472Z,24.32
2018-10-18T18:54:23.127Z,20.72
2018-10-18T18:56:55.523Z,17.80
2018-10-18T18:59:27.941Z,18.80
2018-10-18T19:02:00.283Z,17.32
2018-10-18T19:04:32.655Z,16.50
2018-10-18T19:07:05.074Z,15.83
2018-10-18T19:09:37.571Z,22.65
2018-10-18T19:12:10.014Z,19.27
2018-10-18T19:14:42.434Z,19.05
2018-10-18T19:17:14.748Z,20.57
2018-10-18T19:19:47.198Z,17.32
2018-10-18T19:22:19.782Z,20.15
2018-10-18T19:24:52.873Z,17.65
2018-10-18T19:27:25.296Z,18.57
2018-10-18T19:29:57.642Z,18.35
2018-10-18T19:32:30.089Z,19.60
2018-10-18T19:35:02.512Z,18.60
2018-10-18T19:37:35.224Z,19.70
2018-10-18T19:40:08.218Z,19.05
2018-10-18T19:42:40.608Z,19.17
2018-10-18T19:45:13.006Z,21.50
2018-10-18T19:47:45.595Z,22.80
2018-10-18T19:50:18.102Z,22.20
2018-10-18T19:52:50.539Z,20.97
2018-10-18T19:55:22.974Z,22.50
2018-10-18T19:57:55.659Z,21.43
2018-10-18T20:00:28.230Z,21.60
2018-10-18T20:03:00.557Z,21.37
2018-10-18T20:05:32.921Z,19.67
2018-10-18T20:08:05.476Z,25.13
2018-10-18T20:10:37.846Z,24.03
2018-10-18T20:13:10.519Z,24.27
2018-10-18T20:15:42.932Z,21.63
2018-10-18T20:18:15.434Z,19.53
2018-10-18T20:20:47.682Z,21.67
2018-10-18T20:23:20.001Z,23.20
2018-10-18T20:25:52.803Z,22.43
2018-10-18T20:28:25.021Z,22.20
2018-10-18T20:30:57.367Z,23.27
2018-10-18T20:33:29.692Z,20.87
2018-10-18T20:36:02.177Z,20.73
2018-10-18T20:38:34.662Z,18.73
2018-10-18T20:41:07.086Z,22.47
2018-10-18T20:43:39.539Z,19.20
2018-10-18T20:46:11.882Z,20.80
2018-10-18T20:48:44.231Z,19.90
2018-10-18T20:51:16.596Z,19.30
2018-10-18T20:53:48.935Z,23.20
2018-10-18T20:56:21.245Z,20.77
2018-10-18T20:58:53.562Z,23.13
2018-10-18T21:01:25.870Z,22.80
2018-10-18T21:03:58.178Z,22.73
2018-10-18T21:06:30.763Z,20.60
2018-10-18T21:09:03.802Z,21.70
2018-10-18T21:11:36.197Z,22.73
2018-10-18T21:14:08.466Z,23.33
2018-10-18T21:16:40.789Z,24.37
2018-10-18T21:19:13.046Z,23.00
2018-10-18T21:21:45.402Z,19.23
2018-10-18T21:24:17.721Z,20.53
2018-10-18T21:26:50.224Z,23.93
2018-10-18T21:29:22.518Z,24.67
2018-10-18T21:31:54.933Z,23.03
2018-10-18T21:34:27.269Z,23.87
2018-10-18T21:36:59.598Z,21.67
2018-10-18T21:39:33.166Z,26.73
2018-10-18T21:42:05.509Z,25.90
2018-10-18T21:44:37.932Z,24.53
2018-10-18T21:47:11.121Z,21.90
2018-10-18T21:49:43.546Z,24.30
2018-10-18T21:52:16.006Z,25.10
2018-10-18T21:54:48.294Z,22.70
2018-10-18T21:57:20.690Z,22.17
2018-10-18T21:59:52.999Z,27.60
2018-10-18T22:02:25.335Z,26.27
2018-10-18T22:04:57.630Z,21.53
2018-10-18T22:07:29.901Z,24.10
2018-10-18T22:10:02.253Z,23.30
2018-10-18T22:12:34.747Z,23.10
2018-10-18T22:15:08.640Z,21.87
2018-10-18T22:17:41.063Z,24.53
2018-10-18T22:20:13.369Z,23.03
2018-10-18T22:22:45.686Z,27.00
2018-10-18T22:25:18.028Z,24.63
2018-10-18T22:27:50.361Z,25.77
2018-10-18T22:30:22.677Z,24.73
2018-10-18T22:32:55.081Z,22.60
2018-10-18T22:35:27.346Z,21.93
2018-10-18T22:37:59.686Z,24.60
2018-10-18T22:40:32.023Z,21.37
2018-10-18T22:43:04.649Z,20.13
2018-10-18T22:45:36.970Z,23.13
2018-10-18T22:48:09.285Z,20.97
2018-10-18T22:50:41.708Z,26.37
2018-10-18T22:53:14.222Z,27.60
2018-10-18T22:55:46.413Z,28.33
2018-10-18T22:58:18.734Z,25.20
2018-10-18T23:00:51.022Z,24.70
2018-10-18T23:03:23.329Z,26.00
2018-10-18T23:05:55.604Z,26.17
2018-10-18T23:08:27.894Z,24.30
2018-10-18T23:11:00.236Z,22.97
2018-10-18T23:13:32.564Z,30.37
2018-10-18T23:16:04.937Z,28.20
2018-10-18T23:18:37.242Z,30.67
2018-10-18T23:21:09.657Z,35.87
2018-10-18T23:23:41.961Z,34.60
2018-10-18T23:26:14.214Z,35.47
2018-10-18T23:28:46.498Z,32.17
2018-10-18T23:31:18.943Z,35.50
2018-10-18T23:33:51.272Z,32.80
2018-10-18T23:36:23.809Z,34.43
2018-10-18T23:38:56.206Z,30.47
2018-10-18T23:41:28.484Z,28.57
2018-10-18T23:44:00.914Z,27.87
2018-10-18T23:46:33.365Z,31.90
2018-10-18T23:49:05.690Z,35.30
2018-10-18T23:51:38.013Z,35.17
2018-10-18T23:54:10.270Z,30.23
2018-10-18T23:56:42.598Z,36.13
2018-10-18T23:59:15.011Z,32.63
